createdAt,value
2019-01-19T00:00:20.575Z,79.55
2019-01-19T00:00:46.705Z,79.55
2019-01-19T00:01:12.797Z,79.64
2019-01-19T00:01:38.909Z,79.55
2019-01-19T00:02:05.086Z,79.55
2019-01-19T00:02:31.186Z,79.55
2019-01-19T00:02:57.292Z,79.55
2019-01-19T00:03:23.395Z,79.07
2019-01-19T00:03:49.501Z,79.55
2019-01-19T00:04:15.601Z,79.83
2019-01-19T00:04:41.704Z,79.36
2019-01-19T00:05:10.488Z,79.26
2019-01-19T00:05:35.928Z,79.83
2019-01-19T00:06:02.027Z,79.93
2019-01-19T00:06:28.326Z,79.55
2019-01-19T00:06:54.424Z,79.36
2019-01-19T00:07:20.525Z,79.26
2019-01-19T00:07:46.636Z,79.36
2019-01-19T00:08:12.733Z,79.17
2019-01-19T00:08:38.843Z,78.98
2019-01-19T00:09:04.983Z,79.36
2019-01-19T00:09:31.281Z,79.17
2019-01-19T00:09:57.546Z,79.17
2019-01-19T00:10:23.651Z,79.64
2019-01-19T00:10:49.752Z,79.45
2019-01-19T00:11:15.862Z,79.83
2019-01-19T00:11:42.045Z,79.74
2019-01-19T00:12:08.105Z,79.74
2019-01-19T00:12:34.249Z,79.36
2019-01-19T00:13:00.525Z,79.64
2019-01-19T00:13:26.616Z,79.64
2019-01-19T00:13:52.723Z,79.55
2019-01-19T00:14:18.861Z,79.74
2019-01-19T00:14:44.990Z,79.93
2019-01-19T00:15:11.081Z,79.74
2019-01-19T00:15:37.188Z,79.74
2019-01-19T00:16:03.282Z,79.74
2019-01-19T00:16:29.407Z,79.55
2019-01-19T00:16:55.507Z,79.55
2019-01-19T00:17:21.612Z,79.93
2019-01-19T00:17:47.741Z,79.36
2019-01-19T00:18:13.844Z,79.64
2019-01-19T00:18:39.941Z,80.02
2019-01-19T00:19:06.048Z,80.02
2019-01-19T00:19:32.151Z,80.3
2019-01-19T00:19:58.280Z,80.77
2019-01-19T00:20:24.417Z,80.77
2019-01-19T00:20:50.641Z,80.87
2019-01-19T00:21:16.790Z,80.58
2019-01-19T00:21:42.902Z,80.49
2019-01-19T00:22:09.005Z,80.96
2019-01-19T00:22:35.103Z,81.53
2019-01-19T00:23:01.230Z,81.53
2019-01-19T00:23:27.327Z,81.25
2019-01-19T00:23:53.433Z,81.25
2019-01-19T00:24:20.443Z,81.44
2019-01-19T00:24:46.590Z,82.01
2019-01-19T00:25:12.690Z,82.1
2019-01-19T00:25:38.821Z,82.2
2019-01-19T00:26:04.943Z,81.53
2019-01-19T00:26:31.040Z,81.63
2019-01-19T00:26:57.146Z,81.72
2019-01-19T00:27:23.284Z,81.92
2019-01-19T00:27:49.387Z,81.63
2019-01-19T00:28:15.514Z,81.53
2019-01-19T00:28:41.626Z,81.92
2019-01-19T00:29:07.773Z,81.49
2019-01-19T00:29:33.877Z,81.92
2019-01-19T00:29:59.982Z,81.63
2019-01-19T00:30:26.157Z,81.72
2019-01-19T00:30:52.267Z,81.44
2019-01-19T00:31:18.369Z,81.63
2019-01-19T00:31:44.473Z,81.15
2019-01-19T00:32:10.580Z,81.25
2019-01-19T00:32:36.686Z,81.44
2019-01-19T00:33:02.779Z,81.44
2019-01-19T00:33:28.888Z,81.25
2019-01-19T00:33:55.764Z,81.25
2019-01-19T00:34:21.928Z,81.25
2019-01-19T00:34:49.856Z,80.77
2019-01-19T00:35:17.910Z,80.49
2019-01-19T00:35:43.092Z,80.4
2019-01-19T00:36:09.194Z,80.77
2019-01-19T00:36:35.294Z,80.3
2019-01-19T00:37:01.396Z,80.49
2019-01-19T00:37:27.497Z,80.58
2019-01-19T00:37:53.600Z,80.58
2019-01-19T00:38:19.709Z,80.3
2019-01-19T00:38:45.813Z,80.58
2019-01-19T00:39:11.917Z,80.58
2019-01-19T00:39:38.050Z,80.58
2019-01-19T00:40:05.233Z,80.58
2019-01-19T00:40:30.286Z,80.49
2019-01-19T00:40:56.392Z,80.58
2019-01-19T00:41:22.489Z,80.77
2019-01-19T00:41:48.610Z,80.87
2019-01-19T00:42:14.695Z,80.68
2019-01-19T00:42:40.803Z,80.11
2019-01-19T00:43:06.905Z,80.77
2019-01-19T00:43:33.011Z,80.87
2019-01-19T00:43:59.108Z,80.77
2019-01-19T00:44:25.217Z,80.4
2019-01-19T00:44:51.321Z,80.3
2019-01-19T00:45:17.425Z,80.21
2019-01-19T00:45:43.529Z,80.68
2019-01-19T00:46:09.660Z,80.77
2019-01-19T00:46:35.765Z,80.77
2019-01-19T00:47:01.876Z,80.3
2019-01-19T00:47:27.978Z,80.77
2019-01-19T00:47:54.084Z,80.58
2019-01-19T00:48:20.179Z,80.77
2019-01-19T00:48:46.282Z,80.77
2019-01-19T00:49:12.390Z,80.77
2019-01-19T00:49:38.496Z,80.58
2019-01-19T00:50:04.598Z,80.58
2019-01-19T00:50:30.703Z,80.21
2019-01-19T00:50:56.810Z,80.87
2019-01-19T00:51:22.916Z,80.58
2019-01-19T00:51:49.037Z,80.21
2019-01-19T00:52:15.143Z,80.49
2019-01-19T00:52:41.250Z,80.96
2019-01-19T00:53:07.346Z,80.3
2019-01-19T00:53:33.457Z,80.4
2019-01-19T00:53:59.579Z,80.4
2019-01-19T00:54:25.682Z,80.58
2019-01-19T00:54:51.787Z,80.58
2019-01-19T00:55:17.892Z,80.68
2019-01-19T00:55:43.998Z,80.87
2019-01-19T00:56:10.106Z,80.58
2019-01-19T00:56:36.212Z,80.87
2019-01-19T00:57:02.345Z,80.68
2019-01-19T00:57:28.447Z,80.3
2019-01-19T00:57:54.560Z,79.83
2019-01-19T00:58:20.658Z,80.4
2019-01-19T00:58:46.762Z,80.4
2019-01-19T00:59:12.871Z,80.11
2019-01-19T00:59:38.973Z,80.21
2019-01-19T01:00:05.083Z,80.11
2019-01-19T01:00:31.186Z,80.4
2019-01-19T01:00:57.292Z,80.3
2019-01-19T01:01:23.414Z,80.4
2019-01-19T01:01:49.521Z,80.4
2019-01-19T01:02:15.657Z,80.87
2019-01-19T01:02:41.762Z,80.77
2019-01-19T01:03:07.858Z,80.58
2019-01-19T01:03:33.993Z,80.49
2019-01-19T01:04:00.094Z,80.4
2019-01-19T01:04:26.184Z,80.4
2019-01-19T01:04:52.296Z,80.96
2019-01-19T01:05:25.027Z,80.77
2019-01-19T01:05:46.329Z,80.77
2019-01-19T01:06:12.431Z,80.87
2019-01-19T01:06:38.534Z,80.58
2019-01-19T01:07:04.632Z,80.58
2019-01-19T01:07:30.732Z,80.68
2019-01-19T01:07:56.832Z,80.3
2019-01-19T01:08:22.935Z,80.49
2019-01-19T01:08:49.064Z,80.4
2019-01-19T01:09:15.174Z,80.58
2019-01-19T01:09:41.278Z,80.68
2019-01-19T01:10:07.407Z,80.58
2019-01-19T01:10:33.507Z,80.58
2019-01-19T01:10:59.610Z,80.87
2019-01-19T01:11:25.715Z,80.87
2019-01-19T01:11:51.861Z,80.58
2019-01-19T01:12:17.978Z,80.68
2019-01-19T01:12:44.115Z,80.49
2019-01-19T01:13:10.246Z,80.58
2019-01-19T01:13:36.348Z,80.58
2019-01-19T01:14:02.453Z,80.3
2019-01-19T01:14:28.583Z,80.49
2019-01-19T01:14:54.685Z,80.4
2019-01-19T01:15:20.787Z,80.58
2019-01-19T01:15:46.887Z,80.4
2019-01-19T01:16:12.994Z,80.4
2019-01-19T01:16:39.098Z,80.49
2019-01-19T01:17:05.198Z,80.87
2019-01-19T01:17:31.301Z,81.63
2019-01-19T01:17:57.406Z,81.63
2019-01-19T01:18:23.536Z,81.06
2019-01-19T01:18:49.677Z,81.06
2019-01-19T01:19:15.775Z,81.82
2019-01-19T01:19:41.889Z,81.82
2019-01-19T01:20:07.996Z,81.44
2019-01-19T01:20:34.100Z,81.15
2019-01-19T01:21:00.199Z,81.15
2019-01-19T01:21:26.299Z,81.06
2019-01-19T01:21:52.404Z,81.53
2019-01-19T01:22:18.509Z,81.53
2019-01-19T01:22:44.618Z,81.44
2019-01-19T01:23:10.717Z,81.53
2019-01-19T01:23:36.822Z,81.63
2019-01-19T01:24:02.931Z,81.34
2019-01-19T01:24:29.099Z,80.64
2019-01-19T01:24:55.231Z,80.77
2019-01-19T01:25:21.331Z,80.68
2019-01-19T01:25:47.441Z,80.96
2019-01-19T01:26:13.538Z,81.3
2019-01-19T01:26:39.669Z,81.06
2019-01-19T01:27:05.777Z,81.72
2019-01-19T01:27:31.876Z,81.34
2019-01-19T01:27:57.976Z,81.4
2019-01-19T01:28:24.088Z,81.44
2019-01-19T01:28:50.210Z,81.44
2019-01-19T01:29:16.339Z,81.34
2019-01-19T01:29:42.447Z,81.3
2019-01-19T01:30:08.543Z,81.25
2019-01-19T01:30:34.648Z,81.3
2019-01-19T01:31:00.754Z,81.3
2019-01-19T01:31:26.858Z,81.12
2019-01-19T01:31:52.985Z,81.63
2019-01-19T01:32:19.089Z,81.02
2019-01-19T01:32:45.225Z,81.12
2019-01-19T01:33:11.386Z,81.15
2019-01-19T01:33:37.492Z,81.25
2019-01-19T01:34:03.591Z,81.25
2019-01-19T01:34:29.694Z,81.4
2019-01-19T01:34:55.796Z,81.3
2019-01-19T01:35:21.898Z,81.21
2019-01-19T01:35:48.985Z,81.3
2019-01-19T01:36:15.094Z,81.44
2019-01-19T01:36:41.189Z,81.92
2019-01-19T01:37:07.301Z,81.53
2019-01-19T01:37:33.404Z,81.3
2019-01-19T01:37:59.504Z,81.25
2019-01-19T01:38:25.611Z,81.34
2019-01-19T01:38:51.713Z,81.15
2019-01-19T01:39:17.821Z,81.49
2019-01-19T01:39:43.920Z,81.15
2019-01-19T01:40:10.026Z,81.34
2019-01-19T01:40:36.191Z,81.3
2019-01-19T01:41:02.297Z,81.3
2019-01-19T01:41:28.398Z,81.21
2019-01-19T01:41:54.505Z,81.34
2019-01-19T01:42:20.610Z,81.34
2019-01-19T01:42:46.713Z,81.34
2019-01-19T01:43:12.815Z,81.44
2019-01-19T01:43:38.920Z,81.34
2019-01-19T01:44:05.032Z,81.53
2019-01-19T01:44:31.130Z,81.34
2019-01-19T01:44:57.239Z,81.15
2019-01-19T01:45:23.346Z,81.25
2019-01-19T01:45:49.477Z,81.53
2019-01-19T01:46:15.606Z,81.53
2019-01-19T01:46:41.714Z,81.44
2019-01-19T01:47:07.825Z,81.44
2019-01-19T01:47:33.955Z,81.53
2019-01-19T01:48:00.085Z,81.92
2019-01-19T01:48:26.186Z,81.63
2019-01-19T01:48:52.313Z,81.44
2019-01-19T01:49:18.414Z,81.49
2019-01-19T01:49:44.517Z,81.44
2019-01-19T01:50:10.660Z,81.44
2019-01-19T01:50:36.766Z,81.49
2019-01-19T01:51:02.862Z,81.21
2019-01-19T01:51:28.964Z,81.15
2019-01-19T01:51:55.102Z,81.06
2019-01-19T01:52:21.197Z,81.44
2019-01-19T01:52:47.301Z,81.34
2019-01-19T01:53:13.404Z,81.53
2019-01-19T01:53:39.504Z,81.72
2019-01-19T01:54:05.608Z,80.96
2019-01-19T01:54:31.711Z,81.3
2019-01-19T01:54:57.817Z,81.4
2019-01-19T01:55:23.920Z,81.25
2019-01-19T01:55:50.024Z,81.44
2019-01-19T01:56:16.126Z,81.34
2019-01-19T01:56:42.222Z,81.34
2019-01-19T01:57:08.325Z,81.44
2019-01-19T01:57:34.429Z,81.63
2019-01-19T01:58:00.535Z,81.63
2019-01-19T01:58:26.634Z,81.34
2019-01-19T01:58:52.737Z,81.25
2019-01-19T01:59:18.844Z,81.34
2019-01-19T01:59:44.944Z,81.34
2019-01-19T02:00:11.041Z,81.44
2019-01-19T02:00:37.147Z,81.53
2019-01-19T02:01:03.289Z,81.82
2019-01-19T02:01:29.385Z,81.06
2019-01-19T02:01:55.483Z,80.96
2019-01-19T02:02:21.615Z,80.74
2019-01-19T02:02:47.717Z,80.87
2019-01-19T02:03:13.824Z,81.63
2019-01-19T02:03:39.927Z,81.44
2019-01-19T02:04:06.034Z,81.53
2019-01-19T02:04:32.141Z,81.63
2019-01-19T02:04:58.246Z,81.15
2019-01-19T02:05:24.355Z,80.77
2019-01-19T02:05:51.440Z,80.87
2019-01-19T02:06:17.548Z,80.77
2019-01-19T02:06:43.679Z,80.77
2019-01-19T02:07:09.777Z,80.4
2019-01-19T02:07:35.882Z,80.49
2019-01-19T02:08:02.017Z,80.4
2019-01-19T02:08:28.119Z,80.68
2019-01-19T02:08:54.226Z,80.4
2019-01-19T02:09:20.359Z,80.3
2019-01-19T02:09:46.468Z,80.4
2019-01-19T02:10:12.573Z,80.58
2019-01-19T02:10:38.678Z,80.77
2019-01-19T02:11:04.777Z,80.58
2019-01-19T02:11:30.908Z,80.87
2019-01-19T02:11:57.035Z,80.96
2019-01-19T02:12:23.145Z,80.87
2019-01-19T02:12:49.248Z,80.87
2019-01-19T02:13:15.355Z,80.77
2019-01-19T02:13:41.509Z,80.4
2019-01-19T02:14:07.613Z,80.3
2019-01-19T02:14:33.714Z,80.36
2019-01-19T02:14:59.825Z,80.26
2019-01-19T02:15:25.923Z,80.45
2019-01-19T02:15:52.020Z,80.45
2019-01-19T02:16:18.123Z,80.83
2019-01-19T02:16:44.227Z,81.3
2019-01-19T02:17:10.330Z,81.4
2019-01-19T02:17:36.433Z,81.49
2019-01-19T02:18:02.571Z,81.44
2019-01-19T02:18:28.671Z,81.02
2019-01-19T02:18:54.776Z,81.34
2019-01-19T02:19:20.903Z,81.06
2019-01-19T02:19:47.011Z,81.34
2019-01-19T02:20:13.109Z,81.21
2019-01-19T02:20:39.216Z,81.44
2019-01-19T02:21:05.327Z,81.63
2019-01-19T02:21:31.429Z,81.63
2019-01-19T02:21:57.530Z,81.63
2019-01-19T02:22:23.632Z,81.3
2019-01-19T02:22:49.736Z,81.44
2019-01-19T02:23:15.841Z,81.59
2019-01-19T02:23:41.943Z,81.44
2019-01-19T02:24:08.035Z,81.59
2019-01-19T02:24:34.142Z,81.49
2019-01-19T02:25:00.243Z,81.49
2019-01-19T02:25:26.339Z,81.21
2019-01-19T02:25:52.450Z,81.68
2019-01-19T02:26:18.557Z,81.68
2019-01-19T02:26:44.656Z,81.68
2019-01-19T02:27:10.763Z,81.4
2019-01-19T02:27:36.864Z,81.21
2019-01-19T02:28:02.959Z,81.3
2019-01-19T02:28:29.062Z,81.3
2019-01-19T02:28:55.195Z,81.4
2019-01-19T02:29:21.296Z,81.3
2019-01-19T02:29:47.397Z,81.87
2019-01-19T02:30:13.581Z,81.21
2019-01-19T02:30:39.686Z,81.49
2019-01-19T02:31:05.789Z,81.87
2019-01-19T02:31:31.885Z,81.68
2019-01-19T02:31:59.660Z,81.77
2019-01-19T02:32:25.136Z,81.49
2019-01-19T02:32:51.277Z,81.3
2019-01-19T02:33:17.381Z,81.21
2019-01-19T02:33:43.482Z,81.12
2019-01-19T02:34:09.583Z,81.4
2019-01-19T02:34:35.688Z,81.4
2019-01-19T02:35:01.795Z,81.4
2019-01-19T02:35:27.930Z,81.68
2019-01-19T02:35:55.050Z,81.4
2019-01-19T02:36:21.144Z,81.4
2019-01-19T02:36:47.243Z,81.49
2019-01-19T02:37:13.353Z,81.4
2019-01-19T02:37:39.455Z,81.87
2019-01-19T02:38:05.562Z,81.68
2019-01-19T02:38:31.666Z,81.59
2019-01-19T02:38:57.803Z,81.49
2019-01-19T02:39:23.898Z,81.63
2019-01-19T02:39:50.007Z,81.4
2019-01-19T02:40:16.111Z,81.49
2019-01-19T02:40:42.213Z,81.59
2019-01-19T02:41:08.313Z,81.3
2019-01-19T02:41:34.416Z,81.12
2019-01-19T02:42:00.522Z,81.82
2019-01-19T02:42:26.631Z,81.34
2019-01-19T02:42:52.733Z,81.49
2019-01-19T02:43:18.873Z,81.49
2019-01-19T02:43:45.004Z,81.53
2019-01-19T02:44:11.108Z,81.02
2019-01-19T02:44:37.243Z,80.55
2019-01-19T02:45:03.383Z,80.45
2019-01-19T02:45:29.487Z,80.36
2019-01-19T02:45:55.588Z,80.26
2019-01-19T02:46:21.716Z,80.36
2019-01-19T02:46:47.821Z,80.36
2019-01-19T02:47:13.957Z,80.64
2019-01-19T02:47:40.084Z,80.74
2019-01-19T02:48:06.219Z,81.02
2019-01-19T02:48:32.321Z,80.83
2019-01-19T02:48:58.417Z,81.87
2019-01-19T02:49:24.519Z,81.49
2019-01-19T02:49:50.621Z,81.4
2019-01-19T02:50:16.752Z,81.49
2019-01-19T02:50:42.852Z,81.59
2019-01-19T02:51:08.984Z,81.3
2019-01-19T02:51:35.084Z,81.49
2019-01-19T02:52:01.189Z,81.15
2019-01-19T02:52:27.286Z,81.77
2019-01-19T02:52:53.416Z,81.4
2019-01-19T02:53:19.536Z,81.49
2019-01-19T02:53:45.640Z,81.3
2019-01-19T02:54:11.771Z,81.21
2019-01-19T02:54:37.871Z,81.4
2019-01-19T02:55:03.973Z,81.44
2019-01-19T02:55:30.138Z,81.3
2019-01-19T02:55:56.284Z,81.92
2019-01-19T02:56:22.396Z,81.68
2019-01-19T02:56:48.503Z,81.77
2019-01-19T02:57:14.635Z,81.44
2019-01-19T02:57:40.774Z,81.59
2019-01-19T02:58:06.876Z,81.02
2019-01-19T02:58:32.986Z,80.83
2019-01-19T02:58:59.087Z,80.74
2019-01-19T02:59:25.215Z,81.06
2019-01-19T02:59:51.361Z,80.55
2019-01-19T03:00:17.536Z,80.36
2019-01-19T03:00:43.672Z,80.26
2019-01-19T03:01:09.790Z,80.26
2019-01-19T03:01:35.929Z,80.45
2019-01-19T03:02:02.054Z,80.55
2019-01-19T03:02:28.149Z,80.36
2019-01-19T03:02:54.256Z,80.64
2019-01-19T03:03:20.358Z,80.45
2019-01-19T03:03:46.459Z,80.45
2019-01-19T03:04:12.565Z,80.64
2019-01-19T03:04:38.671Z,80.45
2019-01-19T03:05:04.775Z,80.74
2019-01-19T03:05:30.878Z,80.36
2019-01-19T03:05:57.974Z,80.55
2019-01-19T03:06:24.089Z,80.55
2019-01-19T03:06:50.188Z,80.49
2019-01-19T03:07:16.319Z,80.55
2019-01-19T03:07:42.416Z,80.74
2019-01-19T03:08:08.518Z,80.74
2019-01-19T03:08:34.619Z,80.74
2019-01-19T03:09:00.775Z,80.64
2019-01-19T03:09:26.878Z,80.74
2019-01-19T03:09:52.980Z,80.74
2019-01-19T03:10:19.089Z,80.74
2019-01-19T03:10:45.212Z,80.64
2019-01-19T03:11:11.349Z,80.55
2019-01-19T03:11:37.486Z,80.68
2019-01-19T03:12:03.602Z,80.58
2019-01-19T03:12:29.725Z,80.68
2019-01-19T03:12:55.827Z,80.58
2019-01-19T03:13:21.932Z,80.49
2019-01-19T03:13:48.035Z,80.58
2019-01-19T03:14:14.139Z,80.87
2019-01-19T03:14:40.244Z,80.3
2019-01-19T03:15:06.374Z,80.68
2019-01-19T03:15:32.527Z,80.21
2019-01-19T03:15:58.613Z,80.58
2019-01-19T03:16:24.755Z,80.58
2019-01-19T03:16:50.849Z,80.49
2019-01-19T03:17:16.949Z,80.3
2019-01-19T03:17:43.082Z,80.3
2019-01-19T03:18:09.173Z,80.49
2019-01-19T03:18:35.308Z,80.58
2019-01-19T03:19:01.412Z,80.77
2019-01-19T03:19:27.514Z,80.11
2019-01-19T03:19:53.639Z,80.02
2019-01-19T03:20:19.744Z,80.02
2019-01-19T03:20:45.850Z,80.02
2019-01-19T03:21:11.955Z,80.11
2019-01-19T03:21:38.051Z,80.21
2019-01-19T03:22:04.161Z,80.21
2019-01-19T03:22:30.295Z,80.21
2019-01-19T03:22:56.395Z,79.83
2019-01-19T03:23:22.524Z,80.4
2019-01-19T03:23:48.663Z,80.11
2019-01-19T03:24:14.762Z,80.11
2019-01-19T03:24:40.865Z,80.11
2019-01-19T03:25:06.989Z,80.21
2019-01-19T03:25:33.089Z,79.55
2019-01-19T03:25:59.197Z,79.45
2019-01-19T03:26:25.300Z,79.5
2019-01-19T03:26:51.404Z,79.98
2019-01-19T03:27:17.547Z,80.21
2019-01-19T03:27:43.651Z,80.4
2019-01-19T03:28:09.783Z,80.3
2019-01-19T03:28:35.917Z,80.07
2019-01-19T03:29:02.030Z,80.07
2019-01-19T03:29:28.152Z,80.21
2019-01-19T03:29:54.257Z,80.26
2019-01-19T03:30:20.398Z,80.17
2019-01-19T03:30:46.552Z,80.26
2019-01-19T03:31:12.664Z,80.17
2019-01-19T03:31:38.800Z,80.07
2019-01-19T03:32:04.959Z,80.17
2019-01-19T03:32:31.144Z,80.26
2019-01-19T03:32:57.304Z,80.36
2019-01-19T03:33:23.426Z,80.17
2019-01-19T03:33:49.528Z,80.36
2019-01-19T03:34:15.634Z,79.98
2019-01-19T03:34:41.763Z,79.79
2019-01-19T03:35:07.887Z,79.98
2019-01-19T03:35:33.999Z,80.17
2019-01-19T03:36:04.234Z,80.64
2019-01-19T03:36:27.275Z,80.64
2019-01-19T03:36:53.374Z,80.45
2019-01-19T03:37:19.480Z,79.98
2019-01-19T03:37:45.611Z,79.79
2019-01-19T03:38:11.770Z,79.79
2019-01-19T03:38:37.908Z,79.88
2019-01-19T03:39:04.012Z,80.17
2019-01-19T03:39:30.112Z,80.07
2019-01-19T03:39:56.260Z,80.64
2019-01-19T03:40:22.392Z,80.55
2019-01-19T03:40:48.492Z,80.45
2019-01-19T03:41:14.603Z,80.26
2019-01-19T03:41:40.725Z,80.26
2019-01-19T03:42:06.836Z,80.83
2019-01-19T03:42:32.932Z,80.83
2019-01-19T03:42:59.035Z,80.55
2019-01-19T03:43:25.165Z,80.45
2019-01-19T03:43:51.325Z,80.45
2019-01-19T03:44:17.463Z,81.77
2019-01-19T03:44:43.590Z,81.21
2019-01-19T03:45:09.728Z,81.12
2019-01-19T03:45:35.834Z,81.21
2019-01-19T03:46:01.940Z,81.21
2019-01-19T03:46:28.069Z,81.3
2019-01-19T03:46:54.170Z,81.21
2019-01-19T03:47:20.274Z,81.87
2019-01-19T03:47:46.404Z,81.49
2019-01-19T03:48:12.570Z,81.96
2019-01-19T03:48:38.670Z,82.06
2019-01-19T03:49:04.800Z,81.96
2019-01-19T03:49:30.906Z,82.25
2019-01-19T03:49:57.013Z,81.77
2019-01-19T03:50:23.113Z,81.87
2019-01-19T03:50:49.243Z,81.87
2019-01-19T03:51:15.368Z,81.87
2019-01-19T03:51:41.449Z,81.87
2019-01-19T03:52:07.554Z,81.96
2019-01-19T03:52:33.656Z,81.96
2019-01-19T03:52:59.767Z,81.96
2019-01-19T03:53:25.859Z,82.44
2019-01-19T03:53:51.971Z,82.25
2019-01-19T03:54:18.065Z,82.34
2019-01-19T03:54:44.199Z,82.91
2019-01-19T03:55:10.306Z,82.82
2019-01-19T03:55:36.434Z,82.63
2019-01-19T03:56:02.560Z,82.53
2019-01-19T03:56:28.699Z,82.53
2019-01-19T03:56:54.797Z,83.01
2019-01-19T03:57:20.926Z,82.91
2019-01-19T03:57:47.022Z,82.25
2019-01-19T03:58:13.166Z,82.72
2019-01-19T03:58:39.273Z,83.01
2019-01-19T03:59:05.373Z,82.82
2019-01-19T03:59:31.483Z,82.72
2019-01-19T03:59:57.588Z,83.2
2019-01-19T04:00:23.725Z,83.2
2019-01-19T04:00:49.851Z,82.63
2019-01-19T04:01:15.955Z,83.29
2019-01-19T04:01:42.082Z,83.1
2019-01-19T04:02:08.186Z,83.29
2019-01-19T04:02:34.288Z,83.67
2019-01-19T04:03:00.449Z,83.67
2019-01-19T04:03:26.740Z,83.44
2019-01-19T04:03:52.873Z,83.72
2019-01-19T04:04:19.032Z,83.44
2019-01-19T04:04:45.132Z,83.53
2019-01-19T04:05:11.264Z,83.91
2019-01-19T04:05:37.364Z,83.91
2019-01-19T04:06:03.465Z,84.29
2019-01-19T04:06:30.554Z,84.1
2019-01-19T04:06:56.713Z,84.2
2019-01-19T04:07:22.813Z,83.91
2019-01-19T04:07:48.915Z,84.1
2019-01-19T04:08:15.021Z,84.39
2019-01-19T04:08:41.121Z,84.58
2019-01-19T04:09:07.253Z,84.39
2019-01-19T04:09:33.356Z,85.05
2019-01-19T04:09:59.495Z,84.86
2019-01-19T04:10:25.590Z,84.86
2019-01-19T04:10:51.690Z,85.24
2019-01-19T04:11:17.824Z,84.86
2019-01-19T04:11:43.937Z,85.42
2019-01-19T04:12:10.027Z,85.24
2019-01-19T04:12:36.137Z,85.52
2019-01-19T04:13:02.264Z,85.61
2019-01-19T04:13:28.482Z,85.42
2019-01-19T04:13:54.614Z,85.33
2019-01-19T04:14:20.740Z,85.9
2019-01-19T04:14:46.853Z,85.99
2019-01-19T04:15:12.955Z,85.71
2019-01-19T04:15:39.056Z,85.71
2019-01-19T04:16:05.184Z,86.37
2019-01-19T04:16:31.317Z,86.28
2019-01-19T04:16:57.456Z,86.09
2019-01-19T04:17:23.563Z,86.37
2019-01-19T04:17:49.697Z,86.37
2019-01-19T04:18:15.807Z,86.37
2019-01-19T04:18:41.911Z,86.28
2019-01-19T04:19:08.013Z,86.37
2019-01-19T04:19:34.116Z,86.28
2019-01-19T04:20:00.464Z,86.28
2019-01-19T04:20:26.345Z,86.09
2019-01-19T04:20:52.449Z,86.28
2019-01-19T04:21:18.578Z,87.04
2019-01-19T04:21:44.717Z,86.85
2019-01-19T04:22:10.823Z,87.04
2019-01-19T04:22:36.920Z,87.23
2019-01-19T04:23:03.027Z,86.56
2019-01-19T04:23:29.161Z,86.28
2019-01-19T04:23:55.322Z,86.37
2019-01-19T04:24:21.419Z,86.56
2019-01-19T04:24:47.552Z,86.28
2019-01-19T04:25:13.655Z,85.9
2019-01-19T04:25:39.764Z,85.9
2019-01-19T04:26:05.855Z,86.28
2019-01-19T04:26:31.955Z,86.28
2019-01-19T04:26:58.094Z,86.28
2019-01-19T04:27:24.227Z,86.37
2019-01-19T04:27:50.327Z,87.13
2019-01-19T04:28:16.429Z,86.94
2019-01-19T04:28:42.562Z,86.28
2019-01-19T04:29:08.705Z,86.09
2019-01-19T04:29:35.131Z,86.28
2019-01-19T04:30:01.243Z,86.37
2019-01-19T04:30:27.346Z,86.37
2019-01-19T04:30:53.576Z,86.09
2019-01-19T04:31:19.678Z,85.8
2019-01-19T04:31:45.812Z,86.28
2019-01-19T04:32:12.195Z,85.33
2019-01-19T04:32:38.259Z,85.14
2019-01-19T04:33:04.384Z,85.61
2019-01-19T04:33:30.520Z,85.42
2019-01-19T04:33:56.623Z,84.86
2019-01-19T04:34:22.786Z,84.95
2019-01-19T04:34:48.948Z,85.33
2019-01-19T04:35:15.106Z,85.42
2019-01-19T04:35:41.209Z,85.61
2019-01-19T04:36:07.328Z,85.61
2019-01-19T04:36:34.431Z,85.42
2019-01-19T04:37:00.559Z,85.24
2019-01-19T04:37:26.690Z,85.52
2019-01-19T04:37:52.790Z,85.8
2019-01-19T04:38:18.921Z,85.99
2019-01-19T04:38:45.112Z,86.18
2019-01-19T04:39:11.279Z,86.09
2019-01-19T04:39:37.452Z,86.18
2019-01-19T04:40:03.556Z,85.99
2019-01-19T04:40:29.710Z,85.61
2019-01-19T04:40:55.823Z,85.61
2019-01-19T04:41:21.923Z,86.18
2019-01-19T04:41:48.035Z,85.99
2019-01-19T04:42:14.260Z,86.28
2019-01-19T04:42:40.391Z,86.28
2019-01-19T04:43:06.497Z,85.9
2019-01-19T04:43:32.606Z,86.09
2019-01-19T04:43:58.729Z,86.18
2019-01-19T04:44:24.874Z,86.28
2019-01-19T04:44:51.015Z,86.37
2019-01-19T04:45:17.143Z,86.18
2019-01-19T04:45:43.275Z,86.28
2019-01-19T04:46:09.444Z,86.56
2019-01-19T04:46:35.553Z,85.99
2019-01-19T04:47:01.660Z,86.09
2019-01-19T04:47:27.810Z,86.37
2019-01-19T04:47:53.916Z,85.8
2019-01-19T04:48:20.070Z,86.18
2019-01-19T04:48:46.207Z,86.56
2019-01-19T04:49:12.311Z,86.47
2019-01-19T04:49:38.451Z,86.28
2019-01-19T04:50:04.550Z,86.56
2019-01-19T04:50:30.675Z,86.28
2019-01-19T04:50:56.778Z,86.37
2019-01-19T04:51:22.910Z,86.09
2019-01-19T04:51:49.059Z,86.28
2019-01-19T04:52:15.171Z,86.66
2019-01-19T04:52:41.322Z,86.09
2019-01-19T04:53:07.423Z,86.28
2019-01-19T04:53:33.524Z,85.99
2019-01-19T04:53:59.659Z,85.99
2019-01-19T04:54:26.063Z,85.42
2019-01-19T04:54:53.115Z,85.8
2019-01-19T04:55:19.253Z,85.9
2019-01-19T04:55:45.381Z,86.18
2019-01-19T04:56:11.512Z,85.9
2019-01-19T04:56:37.656Z,85.24
2019-01-19T04:57:03.821Z,85.33
2019-01-19T04:57:29.943Z,85.52
2019-01-19T04:57:56.006Z,85.42
2019-01-19T04:58:22.436Z,85.52
2019-01-19T04:58:48.581Z,85.61
2019-01-19T04:59:14.730Z,85.42
2019-01-19T04:59:40.912Z,85.52
2019-01-19T05:00:07.041Z,84.86
2019-01-19T05:00:33.217Z,85.24
2019-01-19T05:00:59.354Z,85.52
2019-01-19T05:01:25.495Z,84.86
2019-01-19T05:01:51.624Z,84.67
2019-01-19T05:02:17.773Z,84.67
2019-01-19T05:02:43.867Z,84.67
2019-01-19T05:03:09.972Z,84.58
2019-01-19T05:03:36.102Z,84.95
2019-01-19T05:04:02.225Z,85.24
2019-01-19T05:04:28.389Z,84.86
2019-01-19T05:04:54.487Z,84.67
2019-01-19T05:05:20.634Z,84.86
2019-01-19T05:05:46.761Z,84.86
2019-01-19T05:06:13.913Z,84.77
2019-01-19T05:06:41.218Z,84.67
2019-01-19T05:07:07.367Z,84.77
2019-01-19T05:07:33.503Z,85.05
2019-01-19T05:07:59.628Z,84.39
2019-01-19T05:08:25.719Z,84.39
2019-01-19T05:08:51.847Z,84.42
2019-01-19T05:09:17.968Z,84.33
2019-01-19T05:09:44.102Z,84.2
2019-01-19T05:10:10.200Z,84.42
2019-01-19T05:10:36.307Z,84.42
2019-01-19T05:11:02.410Z,84.67
2019-01-19T05:11:28.648Z,84.42
2019-01-19T05:11:54.754Z,84.33
2019-01-19T05:12:20.889Z,84.33
2019-01-19T05:12:46.997Z,84.42
2019-01-19T05:13:13.097Z,84.23
2019-01-19T05:13:39.203Z,84.23
2019-01-19T05:14:05.446Z,84.42
2019-01-19T05:14:31.554Z,84.05
2019-01-19T05:14:57.661Z,84.14
2019-01-19T05:15:23.764Z,84.23
2019-01-19T05:15:50.086Z,83.95
2019-01-19T05:16:16.396Z,83.29
2019-01-19T05:16:42.618Z,83.67
2019-01-19T05:17:08.744Z,83.58
2019-01-19T05:17:34.882Z,83.58
2019-01-19T05:18:01.015Z,83.58
2019-01-19T05:18:27.147Z,83.39
2019-01-19T05:18:53.250Z,83.67
2019-01-19T05:19:19.400Z,82.82
2019-01-19T05:19:45.566Z,83.2
2019-01-19T05:20:11.685Z,82.91
2019-01-19T05:20:37.789Z,83.1
2019-01-19T05:21:03.884Z,82.63
2019-01-19T05:21:30.026Z,82.53
2019-01-19T05:21:56.176Z,82.82
2019-01-19T05:22:22.286Z,82.25
2019-01-19T05:22:48.415Z,82.44
2019-01-19T05:23:15.511Z,82.25
2019-01-19T05:23:41.614Z,82.44
2019-01-19T05:24:07.742Z,82.34
2019-01-19T05:24:33.883Z,83.01
2019-01-19T05:25:00.015Z,82.82
2019-01-19T05:25:26.118Z,83.29
2019-01-19T05:25:52.225Z,82.91
2019-01-19T05:26:18.366Z,83.01
2019-01-19T05:26:44.471Z,82.87
2019-01-19T05:27:10.575Z,83.15
2019-01-19T05:27:36.675Z,83.15
2019-01-19T05:28:02.784Z,83.25
2019-01-19T05:28:28.911Z,83.15
2019-01-19T05:28:55.044Z,82.78
2019-01-19T05:29:21.147Z,82.87
2019-01-19T05:29:47.253Z,82.68
2019-01-19T05:30:13.360Z,83.1
2019-01-19T05:30:39.501Z,83.15
2019-01-19T05:31:05.565Z,83.25
2019-01-19T05:31:31.665Z,83.29
2019-01-19T05:31:57.803Z,83.15
2019-01-19T05:32:23.902Z,83.34
2019-01-19T05:32:50.013Z,83.15
2019-01-19T05:33:16.109Z,83.44
2019-01-19T05:33:42.248Z,83.25
2019-01-19T05:34:08.375Z,83.15
2019-01-19T05:34:34.476Z,83.06
2019-01-19T05:35:00.603Z,83.25
2019-01-19T05:35:26.710Z,83.63
2019-01-19T05:35:52.834Z,83.53
2019-01-19T05:36:18.945Z,83.82
2019-01-19T05:36:45.099Z,83.44
2019-01-19T05:37:11.202Z,83.39
2019-01-19T05:37:37.362Z,83.25
2019-01-19T05:38:03.502Z,83.34